Terminal Aerodrome Forecast
Issued by NWS

Home | Current Version | Previous Version | Text Only | Print | Product List | Glossary On
Versions: 1 2 3 4 5 6 7 8 9 10 11 12 13 14 15 16 17 18 19 20 21 22 23 24 25 26
000
FTPA31 PHFO 190300 AAA
TAFJHM
TAF AMD
PHJH 190305Z 1903/1924 22005KT P6SM VCSH FEW025 SCT050
     FM192000 04008KT P6SM FEW035 SCT050
      AMD NOT SKED AFT 190400=

USA.gov is the U.S. government's official web portal to all federal, state and local government web resources and services.